createdAt,value
2023-05-15T00:00:36.664Z,22.70
2023-05-15T00:03:38.192Z,22.60
2023-05-15T00:06:39.610Z,22.50
2023-05-15T00:09:41.469Z,22.40
2023-05-15T00:12:42.787Z,22.70
2023-05-15T00:15:44.351Z,22.70
2023-05-15T00:18:45.660Z,22.60
2023-05-15T00:21:49.420Z,22.20
2023-05-15T00:24:51.669Z,22.40
2023-05-15T00:27:52.975Z,22.30
2023-05-15T00:30:54.232Z,22.60
2023-05-15T00:33:55.710Z,22.20
2023-05-15T00:36:58.137Z,22.40
2023-05-15T00:40:01.457Z,22.30
2023-05-15T00:43:03.814Z,22.50
2023-05-15T00:46:06.179Z,22.70
2023-05-15T00:49:12.590Z,22.20
2023-05-15T00:52:14.489Z,22.10
2023-05-15T00:55:17.528Z,22.50
2023-05-15T00:58:20.842Z,21.90
2023-05-15T01:01:25.074Z,22.30
2023-05-15T01:04:26.583Z,22.40
2023-05-15T01:07:30.024Z,22.40
2023-05-15T01:10:34.834Z,22.30
2023-05-15T01:13:36.209Z,22.50
2023-05-15T01:16:40.637Z,22.30
2023-05-15T01:19:42.812Z,22.40
2023-05-15T01:22:47.840Z,22.30
2023-05-15T01:26:03.983Z,22.50
2023-05-15T01:29:08.217Z,21.90
2023-05-15T01:32:11.364Z,22.10
2023-05-15T01:35:13.898Z,22.40
2023-05-15T01:38:22.411Z,22.30
2023-05-15T01:41:27.866Z,22.00
2023-05-15T01:44:30.659Z,22.20
2023-05-15T01:47:36.043Z,22.50
2023-05-15T01:50:38.597Z,22.20
2023-05-15T01:53:41.785Z,22.00
2023-05-15T01:56:44.412Z,22.20
2023-05-15T01:59:46.503Z,22.00
2023-05-15T02:02:51.161Z,22.10
2023-05-15T02:05:55.828Z,22.30
2023-05-15T02:09:00.013Z,22.30
2023-05-15T02:12:02.038Z,22.40
2023-05-15T02:15:08.546Z,22.20
2023-05-15T02:18:10.434Z,22.30
2023-05-15T02:21:11.865Z,22.20
2023-05-15T02:24:13.146Z,21.90
2023-05-15T02:27:19.287Z,22.00
2023-05-15T02:30:28.833Z,21.80
2023-05-15T02:33:35.130Z,22.00
2023-05-15T02:36:40.110Z,22.00
2023-05-15T02:39:42.985Z,22.10
2023-05-15T02:42:45.772Z,21.70
2023-05-15T02:45:49.101Z,22.10
2023-05-15T02:48:51.867Z,22.50
2023-05-15T02:51:54.047Z,22.20
2023-05-15T02:54:55.315Z,21.80
2023-05-15T02:57:56.806Z,22.10
2023-05-15T03:00:58.671Z,21.80
2023-05-15T03:03:59.974Z,22.20
2023-05-15T03:07:01.395Z,21.80
2023-05-15T03:10:03.561Z,22.10
2023-05-15T03:13:05.532Z,22.10
2023-05-15T03:16:07.632Z,22.10
2023-05-15T03:19:08.922Z,22.40
2023-05-15T03:22:10.196Z,21.80
2023-05-15T03:25:11.528Z,21.80
2023-05-15T03:28:12.852Z,22.10
2023-05-15T03:31:14.725Z,21.80
2023-05-15T03:34:16.021Z,22.00
2023-05-15T03:37:17.438Z,21.80
2023-05-15T03:40:19.112Z,22.00
2023-05-15T03:43:20.388Z,21.80
2023-05-15T03:46:23.780Z,22.00
2023-05-15T03:49:25.085Z,22.30
2023-05-15T03:52:27.047Z,22.00
2023-05-15T03:55:30.552Z,21.60
2023-05-15T03:58:31.821Z,21.80
2023-05-15T04:01:37.653Z,21.70
2023-05-15T04:04:45.416Z,22.10
2023-05-15T04:07:47.054Z,22.00
2023-05-15T04:10:48.256Z,22.10
2023-05-15T04:13:53.907Z,21.60
2023-05-15T04:16:58.818Z,22.00
2023-05-15T04:20:00.113Z,22.20
2023-05-15T04:23:03.198Z,21.80
2023-05-15T04:26:04.602Z,21.70
2023-05-15T04:29:05.845Z,21.90
2023-05-15T04:32:07.945Z,21.80
2023-05-15T04:35:11.216Z,21.90
2023-05-15T04:38:12.655Z,22.10
2023-05-15T04:41:13.937Z,22.00
2023-05-15T04:44:15.214Z,21.80
2023-05-15T04:47:17.221Z,21.90
2023-05-15T04:50:18.484Z,21.80
2023-05-15T04:53:19.719Z,21.90
2023-05-15T04:56:23.774Z,21.70
2023-05-15T04:59:25.014Z,22.00
2023-05-15T05:02:27.145Z,21.70
2023-05-15T05:05:28.616Z,22.00
2023-05-15T05:08:30.036Z,22.20
2023-05-15T05:11:34.256Z,22.00
2023-05-15T05:14:35.970Z,21.60
2023-05-15T05:17:40.856Z,22.00
2023-05-15T05:20:43.089Z,22.10
2023-05-15T05:23:44.355Z,21.80
2023-05-15T05:26:45.602Z,21.60
2023-05-15T05:29:46.858Z,22.00
2023-05-15T05:32:48.838Z,21.80
2023-05-15T05:35:52.844Z,22.00
2023-05-15T05:38:54.364Z,21.70
2023-05-15T05:41:55.612Z,21.70
2023-05-15T05:44:56.952Z,22.30
2023-05-15T05:47:59.006Z,22.00
2023-05-15T05:51:00.278Z,22.10
2023-05-15T05:54:01.536Z,21.70
2023-05-15T05:57:02.905Z,22.20
2023-05-15T06:00:05.712Z,22.10
2023-05-15T06:03:11.428Z,22.00
2023-05-15T06:06:12.782Z,22.00
2023-05-15T06:09:14.244Z,21.80
2023-05-15T06:12:15.519Z,22.00
2023-05-15T06:15:21.566Z,22.00
2023-05-15T06:18:24.746Z,22.50
2023-05-15T06:21:26.787Z,22.10
2023-05-15T06:24:28.056Z,22.00
2023-05-15T06:27:29.345Z,22.10
2023-05-15T06:30:30.585Z,21.80
2023-05-15T06:33:32.539Z,22.30
2023-05-15T06:36:34.568Z,22.00
2023-05-15T06:39:36.482Z,22.30
2023-05-15T06:42:37.717Z,22.00
2023-05-15T06:45:38.978Z,22.30
2023-05-15T06:48:41.097Z,22.10
2023-05-15T06:51:42.437Z,22.00
2023-05-15T06:54:46.621Z,22.00
2023-05-15T06:57:47.871Z,22.20
2023-05-15T07:00:51.561Z,22.00
2023-05-15T07:03:53.922Z,22.30
2023-05-15T07:06:57.901Z,22.10
2023-05-15T07:09:59.424Z,22.30
2023-05-15T07:13:04.596Z,21.90
2023-05-15T07:16:07.700Z,22.00
2023-05-15T07:19:09.720Z,22.10
2023-05-15T07:22:11.018Z,22.50
2023-05-15T07:25:13.567Z,22.10
2023-05-15T07:28:15.830Z,22.00
2023-05-15T07:31:17.352Z,22.00
2023-05-15T07:34:19.412Z,22.50
2023-05-15T07:37:22.356Z,22.20
2023-05-15T07:40:23.862Z,22.30
2023-05-15T07:43:25.242Z,22.00
2023-05-15T07:46:27.962Z,22.20
2023-05-15T07:49:30.771Z,22.10
2023-05-15T07:52:32.295Z,22.30
2023-05-15T07:55:33.571Z,22.10
2023-05-15T07:58:37.716Z,22.50
2023-05-15T08:01:39.063Z,22.30
2023-05-15T08:04:41.128Z,22.40
2023-05-15T08:07:42.516Z,22.20
2023-05-15T08:10:43.991Z,22.50
2023-05-15T08:13:45.334Z,22.30
2023-05-15T08:16:46.688Z,22.60
2023-05-15T08:19:48.896Z,22.20
2023-05-15T08:22:50.263Z,22.50
2023-05-15T08:25:51.598Z,22.40
2023-05-15T08:28:52.878Z,22.50
2023-05-15T08:31:54.102Z,22.30
2023-05-15T08:34:56.022Z,22.30
2023-05-15T08:37:57.611Z,22.20
2023-05-15T08:41:02.489Z,22.50
2023-05-15T08:44:04.682Z,22.40
2023-05-15T08:47:06.376Z,22.50
2023-05-15T08:50:11.326Z,22.40
2023-05-15T08:53:13.017Z,22.30
2023-05-15T08:56:14.265Z,22.50
2023-05-15T08:59:15.626Z,22.30
2023-05-15T09:02:17.537Z,22.40
2023-05-15T09:05:19.642Z,22.30
2023-05-15T09:08:22.138Z,22.10
2023-05-15T09:11:24.418Z,22.80
2023-05-15T09:14:25.837Z,22.50
2023-05-15T09:17:27.432Z,22.60
2023-05-15T09:20:32.399Z,22.20
2023-05-15T09:23:33.844Z,22.50
2023-05-15T09:26:35.108Z,22.40
2023-05-15T09:29:37.224Z,22.50
2023-05-15T09:32:38.716Z,22.60
2023-05-15T09:35:40.733Z,22.50
2023-05-15T09:38:46.823Z,22.30
2023-05-15T09:41:48.338Z,22.50
2023-05-15T09:44:49.684Z,22.60
2023-05-15T09:47:52.188Z,22.60
2023-05-15T09:50:54.476Z,22.40
2023-05-15T09:53:55.734Z,22.60
2023-05-15T09:57:06.430Z,22.20
2023-05-15T10:00:10.980Z,22.40
2023-05-15T10:03:13.169Z,22.60
2023-05-15T10:06:19.000Z,22.60
2023-05-15T10:09:21.123Z,22.60
2023-05-15T10:12:23.513Z,22.60
2023-05-15T10:15:25.124Z,22.50
2023-05-15T10:18:28.135Z,22.60
2023-05-15T10:21:30.976Z,22.60
2023-05-15T10:24:34.444Z,22.90
2023-05-15T10:27:36.966Z,22.60
2023-05-15T10:30:38.596Z,22.80
2023-05-15T10:33:40.913Z,22.70
2023-05-15T10:36:43.394Z,22.50
2023-05-15T10:39:45.781Z,22.50
2023-05-15T10:42:47.274Z,23.00
2023-05-15T10:45:49.580Z,22.60
2023-05-15T10:48:51.083Z,22.70
2023-05-15T10:51:53.091Z,22.60
2023-05-15T10:54:56.002Z,22.50
2023-05-15T10:57:57.444Z,22.20
2023-05-15T11:01:01.390Z,22.50
2023-05-15T11:04:04.485Z,22.50
2023-05-15T11:07:14.515Z,22.40
2023-05-15T11:10:23.966Z,22.50
2023-05-15T11:13:27.686Z,23.50
2023-05-15T11:16:43.891Z,22.60
2023-05-15T11:19:56.819Z,22.70
2023-05-15T11:23:01.214Z,22.70
2023-05-15T11:26:02.966Z,22.90
2023-05-15T11:29:17.081Z,22.60
2023-05-15T11:32:33.310Z,22.80
2023-05-15T11:35:36.248Z,22.90
2023-05-15T11:38:39.123Z,22.90
2023-05-15T11:41:40.484Z,22.50
2023-05-15T11:44:41.996Z,22.90
2023-05-15T11:47:44.581Z,22.70
2023-05-15T11:50:46.120Z,22.50
2023-05-15T11:53:49.714Z,22.70
2023-05-15T11:56:50.962Z,23.10
2023-05-15T11:59:53.471Z,22.80
2023-05-15T12:02:55.296Z,22.70
2023-05-15T12:06:00.124Z,22.60
2023-05-15T12:09:02.383Z,22.60
2023-05-15T12:12:05.505Z,22.60
2023-05-15T12:15:10.338Z,22.80
2023-05-15T12:18:11.754Z,22.70
2023-05-15T12:21:13.246Z,23.00
2023-05-15T12:24:19.317Z,22.60
2023-05-15T12:27:20.644Z,22.90
2023-05-15T12:30:22.364Z,22.90
2023-05-15T12:33:24.234Z,22.60
2023-05-15T12:36:28.834Z,22.50
2023-05-15T12:39:30.987Z,22.40
2023-05-15T12:42:37.984Z,22.70
2023-05-15T12:45:39.993Z,22.70
2023-05-15T12:48:41.581Z,22.90
2023-05-15T12:51:43.217Z,22.80
2023-05-15T12:54:46.243Z,22.90
2023-05-15T12:57:48.108Z,22.80
2023-05-15T13:00:50.901Z,22.60
2023-05-15T13:03:52.353Z,22.60
2023-05-15T13:06:53.808Z,22.60
2023-05-15T13:10:04.371Z,22.80
2023-05-15T13:13:05.801Z,22.80
2023-05-15T13:16:17.016Z,22.70
2023-05-15T13:19:18.422Z,21.70
2023-05-15T13:22:19.843Z,22.80
2023-05-15T13:25:21.931Z,22.70
2023-05-15T13:28:23.658Z,22.50
2023-05-15T13:31:25.186Z,22.70
2023-05-15T13:34:27.650Z,22.40
2023-05-15T13:37:28.924Z,22.70
2023-05-15T13:40:31.767Z,22.60
2023-05-15T13:43:33.148Z,22.80
2023-05-15T13:46:34.641Z,22.70
2023-05-15T13:49:36.027Z,22.60
2023-05-15T13:52:37.438Z,23.00
2023-05-15T13:55:39.378Z,22.90
2023-05-15T13:58:41.643Z,22.70
2023-05-15T14:01:45.124Z,22.80
2023-05-15T14:04:46.412Z,22.80
2023-05-15T14:07:47.667Z,22.80
2023-05-15T14:10:49.562Z,21.90
2023-05-15T14:13:50.954Z,22.80
2023-05-15T14:16:53.264Z,22.80
2023-05-15T14:19:54.779Z,22.60
2023-05-15T14:22:56.090Z,22.70
2023-05-15T14:25:57.945Z,22.60
2023-05-15T14:28:59.226Z,22.90
2023-05-15T14:32:00.545Z,22.80
2023-05-15T14:35:01.971Z,23.00
2023-05-15T14:38:03.529Z,22.90
2023-05-15T14:41:05.584Z,22.60
2023-05-15T14:44:06.948Z,22.70
2023-05-15T14:47:11.602Z,22.60
2023-05-15T14:50:12.860Z,22.60
2023-05-15T14:53:14.157Z,22.70
2023-05-15T14:56:16.126Z,22.70
2023-05-15T14:59:17.387Z,22.90
2023-05-15T15:02:18.895Z,22.60
2023-05-15T15:05:20.245Z,22.60
2023-05-15T15:08:21.570Z,22.80
2023-05-15T15:11:23.397Z,22.90
2023-05-15T15:14:24.784Z,22.70
2023-05-15T15:17:27.108Z,22.90
2023-05-15T15:23:59.004Z,22.70
2023-05-15T15:27:02.410Z,22.90
2023-05-15T15:30:03.973Z,22.90
2023-05-15T15:33:05.331Z,22.60
2023-05-15T15:36:06.666Z,22.90
2023-05-15T15:39:07.966Z,23.00
2023-05-15T15:42:11.729Z,22.80
2023-05-15T15:45:12.998Z,22.80
2023-05-15T15:48:14.774Z,23.00
2023-05-15T15:51:16.163Z,22.80
2023-05-15T15:54:17.470Z,22.70
2023-05-15T15:57:21.701Z,22.70
2023-05-15T16:00:23.229Z,22.90
2023-05-15T16:03:24.858Z,22.80
2023-05-15T16:06:26.272Z,22.80
2023-05-15T16:09:27.574Z,23.00
2023-05-15T16:12:29.604Z,22.40
2023-05-15T16:15:30.909Z,22.70
2023-05-15T16:18:32.445Z,22.90
2023-05-15T16:21:35.682Z,22.80
2023-05-15T16:24:37.171Z,23.00
2023-05-15T16:27:39.531Z,22.80
2023-05-15T16:30:48.748Z,22.90
2023-05-15T16:33:51.586Z,23.00
2023-05-15T16:36:52.955Z,22.80
2023-05-15T16:39:54.242Z,22.80
2023-05-15T16:42:56.183Z,23.00
2023-05-15T16:45:58.113Z,23.00
2023-05-15T16:48:59.593Z,22.80
2023-05-15T16:52:00.823Z,22.70
2023-05-15T16:55:04.407Z,22.60
2023-05-15T16:58:06.237Z,23.10
2023-05-15T17:01:07.506Z,22.60
2023-05-15T17:04:08.889Z,23.20
2023-05-15T17:07:10.202Z,22.80
2023-05-15T17:10:11.981Z,23.10
2023-05-15T17:13:13.803Z,22.70
2023-05-15T17:16:15.793Z,23.30
2023-05-15T17:19:17.310Z,23.00
2023-05-15T17:22:18.873Z,23.00
2023-05-15T17:25:22.578Z,22.60
2023-05-15T17:28:24.475Z,22.90
2023-05-15T17:31:26.106Z,23.10
2023-05-15T17:34:27.487Z,23.20
2023-05-15T17:37:28.781Z,23.10
2023-05-15T17:40:30.036Z,23.20
2023-05-15T17:43:33.304Z,23.00
2023-05-15T17:46:34.616Z,23.10
2023-05-15T17:49:36.623Z,23.10
2023-05-15T17:52:39.133Z,23.10
2023-05-15T17:55:40.527Z,23.00
2023-05-15T17:58:45.381Z,23.50
2023-05-15T18:01:46.745Z,23.10
2023-05-15T18:04:48.019Z,23.00
2023-05-15T18:07:52.408Z,23.00
2023-05-15T18:10:53.705Z,23.20
2023-05-15T18:13:55.602Z,23.10
2023-05-15T18:16:56.913Z,23.50
2023-05-15T18:19:58.363Z,23.10
2023-05-15T18:22:59.725Z,23.00
2023-05-15T18:26:01.095Z,23.20
2023-05-15T18:29:02.958Z,23.50
2023-05-15T18:32:04.585Z,23.20
2023-05-15T18:35:06.365Z,23.40
2023-05-15T18:38:09.078Z,23.10
2023-05-15T18:41:10.359Z,23.30
2023-05-15T18:44:13.426Z,23.20
2023-05-15T18:47:16.324Z,23.00
2023-05-15T18:50:19.719Z,23.20
2023-05-15T18:53:21.158Z,23.00
2023-05-15T18:56:24.088Z,23.30
2023-05-15T18:59:28.478Z,23.00
2023-05-15T19:02:31.809Z,23.20
2023-05-15T19:05:33.170Z,23.30
2023-05-15T19:08:34.522Z,23.30
2023-05-15T19:11:35.806Z,23.30
2023-05-15T19:14:37.706Z,23.30
2023-05-15T19:17:40.106Z,23.40
2023-05-15T19:20:41.519Z,23.10
2023-05-15T19:23:42.887Z,23.20
2023-05-15T19:26:44.250Z,22.80
2023-05-15T19:29:46.090Z,23.00
2023-05-15T19:32:48.635Z,23.20
2023-05-15T19:35:50.112Z,23.10
2023-05-15T19:38:51.505Z,23.10
2023-05-15T19:41:52.753Z,23.10
2023-05-15T19:44:56.386Z,22.70
2023-05-15T19:47:59.501Z,23.00
2023-05-15T19:51:00.933Z,23.10
2023-05-15T19:54:05.280Z,23.10
2023-05-15T19:57:07.368Z,22.90
2023-05-15T20:00:10.233Z,23.10
2023-05-15T20:03:11.537Z,22.90
2023-05-15T20:06:12.846Z,23.10
2023-05-15T20:09:16.765Z,23.10
2023-05-15T20:12:18.013Z,23.00
2023-05-15T20:15:20.006Z,23.10
2023-05-15T20:18:21.361Z,22.80
2023-05-15T20:21:22.780Z,22.70
2023-05-15T20:24:25.441Z,22.90
2023-05-15T20:27:26.717Z,23.10
2023-05-15T20:30:28.748Z,23.00
2023-05-15T20:33:30.650Z,23.00
2023-05-15T20:36:32.241Z,23.00
2023-05-15T20:39:33.528Z,23.00
2023-05-15T20:42:37.853Z,22.70
2023-05-15T20:45:42.846Z,22.90
2023-05-15T20:48:46.588Z,22.90
2023-05-15T20:51:48.121Z,22.90
2023-05-15T20:54:49.460Z,22.90
2023-05-15T20:57:50.747Z,22.30
2023-05-15T21:00:52.693Z,22.70
2023-05-15T21:03:54.017Z,22.70
2023-05-15T21:06:55.561Z,22.70
2023-05-15T21:09:57.085Z,22.80
2023-05-15T21:12:59.546Z,23.00
2023-05-15T21:16:04.482Z,22.70
2023-05-15T21:19:05.777Z,22.80
2023-05-15T21:22:07.287Z,22.70
2023-05-15T21:25:10.360Z,22.80
2023-05-15T21:28:11.640Z,21.70
2023-05-15T21:31:13.557Z,22.40
2023-05-15T21:34:14.868Z,22.70
2023-05-15T21:37:16.122Z,22.50
2023-05-15T21:40:17.609Z,22.70
2023-05-15T21:43:19.171Z,22.80
2023-05-15T21:46:21.216Z,21.40
2023-05-15T21:49:23.540Z,22.60
2023-05-15T21:52:27.777Z,22.60
2023-05-15T21:55:31.006Z,22.50
2023-05-15T21:58:32.321Z,22.40
2023-05-15T22:01:35.329Z,22.70
2023-05-15T22:04:36.622Z,22.30
2023-05-15T22:07:37.877Z,22.80
2023-05-15T22:10:39.214Z,22.10
2023-05-15T22:13:40.448Z,22.50
2023-05-15T22:16:42.493Z,22.50
2023-05-15T22:19:44.900Z,23.20
2023-05-15T22:22:47.039Z,22.50
2023-05-15T22:25:52.634Z,22.60
2023-05-15T22:28:54.765Z,22.40
2023-05-15T22:31:56.669Z,22.80
2023-05-15T22:34:58.195Z,22.10
2023-05-15T22:37:59.474Z,22.60
2023-05-15T22:41:00.773Z,22.50
2023-05-15T22:44:02.636Z,22.40
2023-05-15T22:47:06.889Z,22.40
2023-05-15T22:50:08.714Z,22.40
2023-05-15T22:53:10.180Z,22.50
2023-05-15T22:56:11.461Z,22.60
2023-05-15T22:59:12.909Z,22.30
2023-05-15T23:02:15.009Z,22.30
2023-05-15T23:05:16.299Z,22.30
2023-05-15T23:08:17.561Z,22.20
2023-05-15T23:11:19.642Z,22.30
2023-05-15T23:14:21.306Z,22.20
2023-05-15T23:17:26.278Z,22.40
2023-05-15T23:20:28.208Z,22.10
2023-05-15T23:23:33.039Z,22.40
2023-05-15T23:26:34.314Z,21.40
2023-05-15T23:29:35.669Z,22.20
2023-05-15T23:32:37.511Z,22.00
2023-05-15T23:35:38.906Z,22.20
2023-05-15T23:38:40.159Z,22.30
2023-05-15T23:41:41.449Z,22.10
2023-05-15T23:44:43.794Z,22.20
2023-05-15T23:47:45.932Z,22.10
2023-05-15T23:50:47.237Z,21.90
2023-05-15T23:53:48.853Z,21.90
2023-05-15T23:56:50.098Z,22.40
2023-05-15T23:59:54.073Z,22.10
